sensor_id;sensor_type;location;lat;lon;timestamp;pressure;altitude;pressure_sealevel;temperature;humidity
62072;BME280;48031;48.542;13.232;2023-09-08T00:02:40;97619.34;;;21.96;71.63
62072;BME280;48031;48.542;13.232;2023-09-08T00:06:43;97630.13;;;21.67;75.12
62072;BME280;48031;48.542;13.232;2023-09-08T00:10:46;97633.47;;;20.66;79.82
62072;BME280;48031;48.542;13.232;2023-09-08T00:14:49;97636.81;;;20.41;83.44
62072;BME280;48031;48.542;13.232;2023-09-08T00:18:51;97635.56;;;21.05;80.05
62072;BME280;48031;48.542;13.232;2023-09-08T00:22:53;97637.28;;;20.79;80.75
62072;BME280;48031;48.542;13.232;2023-09-08T00:26:56;97632.63;;;21.24;79.99
62072;BME280;48031;48.542;13.232;2023-09-08T00:30:59;97642.16;;;21.40;77.95
62072;BME280;48031;48.542;13.232;2023-09-08T00:35:10;97626.88;;;21.74;76.31
62072;BME280;48031;48.542;13.232;2023-09-08T00:39:13;97627.16;;;21.10;78.51
62072;BME280;48031;48.542;13.232;2023-09-08T00:43:16;97629.69;;;21.51;77.02
62072;BME280;48031;48.542;13.232;2023-09-08T00:47:18;97620.31;;;21.30;77.58
62072;BME280;48031;48.542;13.232;2023-09-08T00:51:20;97625.66;;;20.82;78.83
62072;BME280;48031;48.542;13.232;2023-09-08T00:55:23;97629.69;;;20.62;83.02
62072;BME280;48031;48.542;13.232;2023-09-08T00:59:25;97634.03;;;20.41;82.85
62072;BME280;48031;48.542;13.232;2023-09-08T01:03:27;97632.53;;;20.35;83.17
62072;BME280;48031;48.542;13.232;2023-09-08T01:07:30;97634.97;;;19.96;86.34
62072;BME280;48031;48.542;13.232;2023-09-08T01:11:33;97632.13;;;20.14;84.74
62072;BME280;48031;48.542;13.232;2023-09-08T01:15:35;97634.09;;;20.63;82.06
62072;BME280;48031;48.542;13.232;2023-09-08T01:19:38;97630.22;;;20.64;81.94
62072;BME280;48031;48.542;13.232;2023-09-08T01:24:44;97635.19;;;20.13;83.26
62072;BME280;48031;48.542;13.232;2023-09-08T01:28:21;97630.63;;;19.95;84.31
62072;BME280;48031;48.542;13.232;2023-09-08T01:32:25;97638.03;;;20.08;86.39
62072;BME280;48031;48.542;13.232;2023-09-08T01:36:28;97625.00;;;20.00;85.70
62072;BME280;48031;48.542;13.232;2023-09-08T01:40:30;97630.63;;;19.95;85.98
62072;BME280;48031;48.542;13.232;2023-09-08T01:44:32;97638.66;;;19.50;88.83
62072;BME280;48031;48.542;13.232;2023-09-08T01:48:34;97628.28;;;19.88;87.16
62072;BME280;48031;48.542;13.232;2023-09-08T01:52:37;97627.66;;;19.77;87.18
62072;BME280;48031;48.542;13.232;2023-09-08T01:56:39;97630.97;;;19.47;87.68
62072;BME280;48031;48.542;13.232;2023-09-08T02:00:41;97626.72;;;19.55;88.87
62072;BME280;48031;48.542;13.232;2023-09-08T02:04:44;97630.63;;;19.35;89.17
62072;BME280;48031;48.542;13.232;2023-09-08T02:08:47;97626.50;;;19.51;87.18
62072;BME280;48031;48.542;13.232;2023-09-08T02:12:49;97629.19;;;19.83;86.68
62072;BME280;48031;48.542;13.232;2023-09-08T02:16:51;97628.41;;;19.37;88.85
62072;BME280;48031;48.542;13.232;2023-09-08T02:20:53;97637.84;;;19.63;88.51
62072;BME280;48031;48.542;13.232;2023-09-08T02:24:55;97635.06;;;19.17;89.27
62072;BME280;48031;48.542;13.232;2023-09-08T02:29:00;97635.09;;;19.31;89.76
62072;BME280;48031;48.542;13.232;2023-09-08T02:33:02;97636.63;;;19.56;88.48
62072;BME280;48031;48.542;13.232;2023-09-08T02:37:05;97635.28;;;18.88;90.27
62072;BME280;48031;48.542;13.232;2023-09-08T02:41:08;97635.28;;;19.21;90.35
62072;BME280;48031;48.542;13.232;2023-09-08T02:45:10;97628.97;;;19.34;88.36
62072;BME280;48031;48.542;13.232;2023-09-08T02:49:13;97632.00;;;19.05;90.12
62072;BME280;48031;48.542;13.232;2023-09-08T02:53:15;97628.81;;;19.11;88.40
62072;BME280;48031;48.542;13.232;2023-09-08T02:57:17;97625.72;;;19.32;87.96
62072;BME280;48031;48.542;13.232;2023-09-08T03:01:19;97632.75;;;18.92;90.27
62072;BME280;48031;48.542;13.232;2023-09-08T03:05:22;97632.25;;;19.22;88.11
62072;BME280;48031;48.542;13.232;2023-09-08T03:09:25;97623.56;;;19.15;88.50
62072;BME280;48031;48.542;13.232;2023-09-08T03:13:28;97624.38;;;19.16;88.12
62072;BME280;48031;48.542;13.232;2023-09-08T03:17:31;97620.38;;;19.08;88.33
62072;BME280;48031;48.542;13.232;2023-09-08T03:21:33;97619.44;;;18.24;91.04
62072;BME280;48031;48.542;13.232;2023-09-08T03:25:35;97622.28;;;18.75;89.08
62072;BME280;48031;48.542;13.232;2023-09-08T03:29:37;97627.19;;;18.78;89.38
62072;BME280;48031;48.542;13.232;2023-09-08T03:33:40;97631.16;;;18.72;88.73
62072;BME280;48031;48.542;13.232;2023-09-08T03:37:44;97630.47;;;18.61;89.46
62072;BME280;48031;48.542;13.232;2023-09-08T03:41:47;97629.06;;;18.64;89.63
62072;BME280;48031;48.542;13.232;2023-09-08T03:45:49;97640.47;;;18.34;91.27
62072;BME280;48031;48.542;13.232;2023-09-08T03:49:52;97635.19;;;18.18;92.13
62072;BME280;48031;48.542;13.232;2023-09-08T03:53:54;97641.63;;;18.09;91.07
62072;BME280;48031;48.542;13.232;2023-09-08T03:57:57;97649.06;;;17.56;96.56
62072;BME280;48031;48.542;13.232;2023-09-08T04:02:00;97655.06;;;17.34;98.50
62072;BME280;48031;48.542;13.232;2023-09-08T04:06:04;97649.34;;;18.07;93.87
62072;BME280;48031;48.542;13.232;2023-09-08T04:10:09;97647.00;;;17.95;95.38
62072;BME280;48031;48.542;13.232;2023-09-08T04:14:11;97645.16;;;17.67;94.11
62072;BME280;48031;48.542;13.232;2023-09-08T04:18:14;97656.09;;;17.14;97.39
62072;BME280;48031;48.542;13.232;2023-09-08T04:22:16;97657.25;;;17.37;96.75
62072;BME280;48031;48.542;13.232;2023-09-08T04:26:19;97658.25;;;17.75;96.72
62072;BME280;48031;48.542;13.232;2023-09-08T04:30:21;97665.88;;;18.02;93.60
62072;BME280;48031;48.542;13.232;2023-09-08T04:34:24;97669.34;;;17.65;95.02
62072;BME280;48031;48.542;13.232;2023-09-08T04:38:27;97660.03;;;18.08;94.82
62072;BME280;48031;48.542;13.232;2023-09-08T04:42:29;97664.41;;;17.62;95.52
62072;BME280;48031;48.542;13.232;2023-09-08T04:46:33;97669.44;;;18.26;92.46
62072;BME280;48031;48.542;13.232;2023-09-08T04:50:35;97660.59;;;18.10;92.61
62072;BME280;48031;48.542;13.232;2023-09-08T04:54:38;97653.16;;;18.29;92.09
62072;BME280;48031;48.542;13.232;2023-09-08T04:58:41;97661.78;;;18.65;95.42
62072;BME280;48031;48.542;13.232;2023-09-08T05:02:46;97663.09;;;18.87;94.90
62072;BME280;48031;48.542;13.232;2023-09-08T05:06:49;97660.69;;;18.00;90.72
62072;BME280;48031;48.542;13.232;2023-09-08T05:10:53;97652.81;;;18.36;89.97
62072;BME280;48031;48.542;13.232;2023-09-08T05:14:55;97662.72;;;18.75;88.74
62072;BME280;48031;48.542;13.232;2023-09-08T05:18:58;97663.97;;;18.02;89.46
62072;BME280;48031;48.542;13.232;2023-09-08T05:23:01;97674.72;;;17.46;93.03
62072;BME280;48031;48.542;13.232;2023-09-08T05:27:04;97667.25;;;17.80;90.79
62072;BME280;48031;48.542;13.232;2023-09-08T05:31:07;97679.16;;;17.95;90.70
62072;BME280;48031;48.542;13.232;2023-09-08T05:35:10;97689.50;;;18.88;89.03
62072;BME280;48031;48.542;13.232;2023-09-08T05:39:15;97692.91;;;18.98;88.57
62072;BME280;48031;48.542;13.232;2023-09-08T05:43:17;97690.50;;;18.73;91.23
62072;BME280;48031;48.542;13.232;2023-09-08T05:47:20;97695.47;;;19.08;90.91
62072;BME280;48031;48.542;13.232;2023-09-08T05:51:23;97687.97;;;19.46;88.03
62072;BME280;48031;48.542;13.232;2023-09-08T05:55:27;97696.06;;;19.57;87.67
62072;BME280;48031;48.542;13.232;2023-09-08T05:59:30;97708.56;;;19.81;87.18
62072;BME280;48031;48.542;13.232;2023-09-08T06:03:33;97697.88;;;19.93;86.67
62072;BME280;48031;48.542;13.232;2023-09-08T06:07:36;97704.28;;;19.43;89.93
62072;BME280;48031;48.542;13.232;2023-09-08T06:11:42;97709.13;;;19.32;91.44
62072;BME280;48031;48.542;13.232;2023-09-08T06:15:45;97708.69;;;20.04;87.51
62072;BME280;48031;48.542;13.232;2023-09-08T06:19:49;97713.88;;;19.78;88.47
62072;BME280;48031;48.542;13.232;2023-09-08T06:23:51;97701.78;;;20.33;85.20
62072;BME280;48031;48.542;13.232;2023-09-08T06:27:54;97711.13;;;20.46;84.08
62072;BME280;48031;48.542;13.232;2023-09-08T06:31:56;97720.50;;;20.18;85.32
62072;BME280;48031;48.542;13.232;2023-09-08T06:35:59;97707.22;;;20.74;84.38
62072;BME280;48031;48.542;13.232;2023-09-08T06:40:01;97712.31;;;20.67;85.64
62072;BME280;48031;48.542;13.232;2023-09-08T06:44:03;97713.66;;;20.84;85.86
62072;BME280;48031;48.542;13.232;2023-09-08T06:48:08;97710.91;;;20.70;85.17
62072;BME280;48031;48.542;13.232;2023-09-08T06:52:11;97699.22;;;21.23;84.72
62072;BME280;48031;48.542;13.232;2023-09-08T06:56:13;97711.66;;;20.98;86.36
62072;BME280;48031;48.542;13.232;2023-09-08T07:00:15;97713.28;;;20.99;87.52
62072;BME280;48031;48.542;13.232;2023-09-08T07:04:19;97717.84;;;20.67;88.76
62072;BME280;48031;48.542;13.232;2023-09-08T07:08:21;97713.34;;;21.07;88.68
62072;BME280;48031;48.542;13.232;2023-09-08T07:12:24;97710.53;;;20.99;88.90
62072;BME280;48031;48.542;13.232;2023-09-08T07:16:40;97719.97;;;21.20;88.42
62072;BME280;48031;48.542;13.232;2023-09-08T07:20:46;97708.94;;;21.42;88.64
62072;BME280;48031;48.542;13.232;2023-09-08T07:24:50;97714.69;;;21.77;87.76
62072;BME280;48031;48.542;13.232;2023-09-08T07:28:52;97714.94;;;21.67;87.46
62072;BME280;48031;48.542;13.232;2023-09-08T07:32:54;97711.53;;;22.31;85.90
62072;BME280;48031;48.542;13.232;2023-09-08T07:36:57;97711.66;;;22.18;85.40
62072;BME280;48031;48.542;13.232;2023-09-08T07:41:00;97707.34;;;22.03;86.27
62072;BME280;48031;48.542;13.232;2023-09-08T07:45:03;97706.16;;;22.26;86.07
62072;BME280;48031;48.542;13.232;2023-09-08T07:49:06;97706.34;;;22.95;84.28
62072;BME280;48031;48.542;13.232;2023-09-08T07:53:08;97709.91;;;22.96;84.53
62072;BME280;48031;48.542;13.232;2023-09-08T07:57:10;97708.63;;;23.10;83.20
62072;BME280;48031;48.542;13.232;2023-09-08T08:01:13;97709.13;;;23.12;83.46
62072;BME280;48031;48.542;13.232;2023-09-08T08:05:15;97717.91;;;23.49;83.21
62072;BME280;48031;48.542;13.232;2023-09-08T08:09:18;97714.44;;;23.78;83.07
62072;BME280;48031;48.542;13.232;2023-09-08T08:13:20;97709.72;;;23.78;81.76
62072;BME280;48031;48.542;13.232;2023-09-08T08:17:22;97713.66;;;24.15;80.74
62072;BME280;48031;48.542;13.232;2023-09-08T08:21:24;97715.53;;;23.85;85.77
62072;BME280;48031;48.542;13.232;2023-09-08T08:25:26;97701.91;;;24.10;78.99
62072;BME280;48031;48.542;13.232;2023-09-08T08:29:28;97698.63;;;24.54;77.34
62072;BME280;48031;48.542;13.232;2023-09-08T08:33:33;97694.84;;;25.09;75.80
62072;BME280;48031;48.542;13.232;2023-09-08T08:37:35;97691.41;;;24.62;75.57
62072;BME280;48031;48.542;13.232;2023-09-08T08:41:37;97693.38;;;24.91;72.98
62072;BME280;48031;48.542;13.232;2023-09-08T08:45:42;97684.13;;;25.40;74.43
62072;BME280;48031;48.542;13.232;2023-09-08T08:49:47;97693.94;;;25.38;76.53
62072;BME280;48031;48.542;13.232;2023-09-08T08:53:50;97684.31;;;25.56;73.27
62072;BME280;48031;48.542;13.232;2023-09-08T08:57:52;97686.75;;;25.90;69.28
62072;BME280;48031;48.542;13.232;2023-09-08T09:01:55;97691.56;;;26.26;73.40
62072;BME280;48031;48.542;13.232;2023-09-08T09:05:58;97687.16;;;26.37;72.19
62072;BME280;48031;48.542;13.232;2023-09-08T09:10:01;97676.25;;;26.44;68.73
62072;BME280;48031;48.542;13.232;2023-09-08T09:14:04;97673.34;;;26.29;70.15
62072;BME280;48031;48.542;13.232;2023-09-08T09:18:07;97675.56;;;27.52;66.76
62072;BME280;48031;48.542;13.232;2023-09-08T09:22:09;97665.72;;;28.80;64.68
62072;BME280;48031;48.542;13.232;2023-09-08T09:26:25;97658.63;;;30.47;61.11
62072;BME280;48031;48.542;13.232;2023-09-08T09:30:46;97658.94;;;29.54;60.64
62072;BME280;48031;48.542;13.232;2023-09-08T09:34:53;97673.03;;;31.24;59.45
62072;BME280;48031;48.542;13.232;2023-09-08T09:38:59;97658.19;;;31.57;57.33
62072;BME280;48031;48.542;13.232;2023-09-08T09:43:02;97669.91;;;31.33;55.74
62072;BME280;48031;48.542;13.232;2023-09-08T09:47:06;97665.91;;;32.99;52.44
62072;BME280;48031;48.542;13.232;2023-09-08T09:51:18;97658.78;;;34.20;50.83
62072;BME280;48031;48.542;13.232;2023-09-08T09:55:21;97656.59;;;35.41;48.62
62072;BME280;48031;48.542;13.232;2023-09-08T09:59:23;97656.84;;;36.89;47.07
62072;BME280;48031;48.542;13.232;2023-09-08T10:03:26;97644.97;;;38.77;41.62
62072;BME280;48031;48.542;13.232;2023-09-08T10:07:29;97643.44;;;40.46;37.21
62072;BME280;48031;48.542;13.232;2023-09-08T10:11:39;61634.44;;;-142.07;100.00
62072;BME280;48031;48.542;13.232;2023-09-08T10:15:44;97637.44;;;41.76;32.54
62072;BME280;48031;48.542;13.232;2023-09-08T10:19:47;97631.34;;;43.13;32.15
62072;BME280;48031;48.542;13.232;2023-09-08T10:23:59;97631.31;;;45.80;25.53
62072;BME280;48031;48.542;13.232;2023-09-08T10:28:04;97630.94;;;45.97;24.35
62072;BME280;48031;48.542;13.232;2023-09-08T10:32:09;97621.28;;;46.51;24.02
62072;BME280;48031;48.542;13.232;2023-09-08T10:36:12;97619.44;;;46.95;21.19
62072;BME280;48031;48.542;13.232;2023-09-08T10:40:24;97616.19;;;48.64;19.99
62072;BME280;48031;48.542;13.232;2023-09-08T10:44:38;97613.28;;;48.44;20.56
62072;BME280;48031;48.542;13.232;2023-09-08T10:48:42;97625.22;;;46.62;21.98
62072;BME280;48031;48.542;13.232;2023-09-08T10:52:47;97615.19;;;50.73;19.54
62072;BME280;48031;48.542;13.232;2023-09-08T10:57:06;97610.53;;;49.56;18.66
62072;BME280;48031;48.542;13.232;2023-09-08T11:01:19;97610.19;;;51.28;18.49
62072;BME280;48031;48.542;13.232;2023-09-08T11:05:22;97603.44;;;51.53;16.16
62072;BME280;48031;48.542;13.232;2023-09-08T11:09:25;97599.34;;;54.00;15.70
62072;BME280;48031;48.542;13.232;2023-09-08T11:13:27;97611.44;;;51.10;16.54
62072;BME280;48031;48.542;13.232;2023-09-08T11:17:32;97589.81;;;53.64;14.23
62072;BME280;48031;48.542;13.232;2023-09-08T11:21:36;61634.44;;;-142.07;100.00
62072;BME280;48031;48.542;13.232;2023-09-08T11:25:40;97587.03;;;54.72;13.46
62072;BME280;48031;48.542;13.232;2023-09-08T11:29:43;97584.03;;;54.78;13.28
62072;BME280;48031;48.542;13.232;2023-09-08T11:33:48;97594.50;;;55.48;12.54
62072;BME280;48031;48.542;13.232;2023-09-08T11:37:51;97583.25;;;54.53;13.71
62072;BME280;48031;48.542;13.232;2023-09-08T11:41:54;97563.22;;;54.19;12.47
62072;BME280;48031;48.542;13.232;2023-09-08T11:45:56;97573.59;;;54.63;11.40
62072;BME280;48031;48.542;13.232;2023-09-08T11:49:58;97577.03;;;55.48;11.49
62072;BME280;48031;48.542;13.232;2023-09-08T11:54:01;97577.03;;;55.48;11.49
62072;BME280;48031;48.542;13.232;2023-09-08T11:58:04;97571.22;;;55.67;10.37
62072;BME280;48031;48.542;13.232;2023-09-08T12:02:06;97560.00;;;58.23;10.57
62072;BME280;48031;48.542;13.232;2023-09-08T12:06:08;97551.97;;;57.61;11.08
62072;BME280;48031;48.542;13.232;2023-09-08T12:10:11;97552.34;;;56.45;11.62
62072;BME280;48031;48.542;13.232;2023-09-08T12:14:15;97550.09;;;57.03;11.72
62072;BME280;48031;48.542;13.232;2023-09-08T12:18:17;97551.94;;;58.16;11.34
62072;BME280;48031;48.542;13.232;2023-09-08T12:22:20;97537.13;;;57.59;11.76
62072;BME280;48031;48.542;13.232;2023-09-08T12:26:24;97540.44;;;56.43;10.83
62072;BME280;48031;48.542;13.232;2023-09-08T12:30:28;97533.13;;;58.32;10.36
62072;BME280;48031;48.542;13.232;2023-09-08T12:34:34;97543.94;;;56.81;12.00
62072;BME280;48031;48.542;13.232;2023-09-08T12:38:37;97540.00;;;58.63;9.63
62072;BME280;48031;48.542;13.232;2023-09-08T12:42:39;97525.16;;;57.70;9.26
62072;BME280;48031;48.542;13.232;2023-09-08T12:46:51;97519.41;;;59.86;9.63
62072;BME280;48031;48.542;13.232;2023-09-08T12:50:53;97518.25;;;58.87;8.74
62072;BME280;48031;48.542;13.232;2023-09-08T12:54:55;97517.13;;;57.63;9.58
62072;BME280;48031;48.542;13.232;2023-09-08T12:58:57;97517.81;;;60.15;9.42
62072;BME280;48031;48.542;13.232;2023-09-08T13:02:59;97500.44;;;57.92;11.01
62072;BME280;48031;48.542;13.232;2023-09-08T13:07:04;97513.50;;;58.12;9.69
62072;BME280;48031;48.542;13.232;2023-09-08T13:11:06;97510.69;;;59.42;9.71
62072;BME280;48031;48.542;13.232;2023-09-08T13:15:08;97504.56;;;57.76;10.75
62072;BME280;48031;48.542;13.232;2023-09-08T13:19:11;97505.28;;;59.03;8.15
62072;BME280;48031;48.542;13.232;2023-09-08T13:23:13;97500.44;;;57.50;8.59
62072;BME280;48031;48.542;13.232;2023-09-08T13:27:15;97492.91;;;57.42;8.77
62072;BME280;48031;48.542;13.232;2023-09-08T13:31:19;97494.22;;;58.81;9.42
62072;BME280;48031;48.542;13.232;2023-09-08T13:35:21;97484.16;;;58.04;9.30
62072;BME280;48031;48.542;13.232;2023-09-08T13:39:24;97497.16;;;58.16;9.90
62072;BME280;48031;48.542;13.232;2023-09-08T13:43:26;97497.75;;;57.19;10.47
62072;BME280;48031;48.542;13.232;2023-09-08T13:47:29;97498.00;;;58.24;9.43
62072;BME280;48031;48.542;13.232;2023-09-08T13:51:31;97499.38;;;56.54;10.46
62072;BME280;48031;48.542;13.232;2023-09-08T13:55:35;97497.50;;;57.30;9.95
62072;BME280;48031;48.542;13.232;2023-09-08T13:59:39;97490.84;;;56.69;10.91
62072;BME280;48031;48.542;13.232;2023-09-08T14:03:44;97486.66;;;57.38;10.93
62072;BME280;48031;48.542;13.232;2023-09-08T14:08:05;97483.47;;;58.11;9.74
62072;BME280;48031;48.542;13.232;2023-09-08T14:12:19;97467.28;;;56.01;11.08
62072;BME280;48031;48.542;13.232;2023-09-08T14:16:26;97471.06;;;54.39;11.68
62072;BME280;48031;48.542;13.232;2023-09-08T14:20:28;97462.13;;;55.62;12.11
62072;BME280;48031;48.542;13.232;2023-09-08T14:24:30;97458.06;;;55.97;11.32
62072;BME280;48031;48.542;13.232;2023-09-08T14:28:32;97454.44;;;55.91;10.78
62072;BME280;48031;48.542;13.232;2023-09-08T14:32:34;97456.41;;;56.02;10.02
62072;BME280;48031;48.542;13.232;2023-09-08T14:36:39;97457.56;;;54.97;11.06
62072;BME280;48031;48.542;13.232;2023-09-08T14:40:42;97454.94;;;55.31;9.92
62072;BME280;48031;48.542;13.232;2023-09-08T14:44:44;97452.00;;;54.62;10.47
62072;BME280;48031;48.542;13.232;2023-09-08T14:48:45;97455.38;;;52.46;12.30
62072;BME280;48031;48.542;13.232;2023-09-08T14:52:48;97448.72;;;53.03;11.39
62072;BME280;48031;48.542;13.232;2023-09-08T14:56:50;97441.03;;;53.17;10.70
62072;BME280;48031;48.542;13.232;2023-09-08T15:00:52;97446.44;;;54.83;9.97
62072;BME280;48031;48.542;13.232;2023-09-08T15:04:55;97433.97;;;55.20;9.90
62072;BME280;48031;48.542;13.232;2023-09-08T15:08:58;97441.66;;;52.41;12.03
62072;BME280;48031;48.542;13.232;2023-09-08T15:13:00;97437.13;;;51.48;12.43
62072;BME280;48031;48.542;13.232;2023-09-08T15:17:02;97433.34;;;49.42;12.59
62072;BME280;48031;48.542;13.232;2023-09-08T15:21:04;97438.97;;;48.54;14.65
62072;BME280;48031;48.542;13.232;2023-09-08T15:25:06;97437.47;;;50.63;12.56
62072;BME280;48031;48.542;13.232;2023-09-08T15:29:09;97433.75;;;50.57;12.57
62072;BME280;48031;48.542;13.232;2023-09-08T15:33:14;97426.25;;;52.05;11.64
62072;BME280;48031;48.542;13.232;2023-09-08T15:37:17;97428.13;;;51.19;12.63
62072;BME280;48031;48.542;13.232;2023-09-08T15:41:20;97435.22;;;51.90;12.40
62072;BME280;48031;48.542;13.232;2023-09-08T15:45:22;97436.16;;;50.11;13.06
62072;BME280;48031;48.542;13.232;2023-09-08T15:49:24;97435.72;;;49.49;15.01
62072;BME280;48031;48.542;13.232;2023-09-08T15:53:26;97435.34;;;50.05;14.20
62072;BME280;48031;48.542;13.232;2023-09-08T15:57:28;97444.06;;;47.25;16.13
62072;BME280;48031;48.542;13.232;2023-09-08T16:01:30;97428.44;;;47.61;17.59
62072;BME280;48031;48.542;13.232;2023-09-08T16:05:33;97431.91;;;48.14;15.03
62072;BME280;48031;48.542;13.232;2023-09-08T16:09:35;97421.13;;;46.33;17.40
62072;BME280;48031;48.542;13.232;2023-09-08T16:13:47;97430.34;;;47.64;17.33
62072;BME280;48031;48.542;13.232;2023-09-08T16:17:50;97425.78;;;46.69;17.85
62072;BME280;48031;48.542;13.232;2023-09-08T16:21:52;97429.13;;;44.52;19.58
62072;BME280;48031;48.542;13.232;2023-09-08T16:25:56;97415.88;;;46.85;17.84
62072;BME280;48031;48.542;13.232;2023-09-08T16:29:58;61634.44;;;-142.07;100.00
62072;BME280;48031;48.542;13.232;2023-09-08T16:34:00;97416.34;;;48.26;16.07
62072;BME280;48031;48.542;13.232;2023-09-08T16:38:02;97415.03;;;47.08;18.23
62072;BME280;48031;48.542;13.232;2023-09-08T16:42:04;97407.75;;;46.30;18.63
62072;BME280;48031;48.542;13.232;2023-09-08T16:46:06;97426.09;;;43.61;20.32
62072;BME280;48031;48.542;13.232;2023-09-08T16:50:09;97418.47;;;44.25;20.14
62072;BME280;48031;48.542;13.232;2023-09-08T16:54:11;97422.75;;;42.01;22.85
62072;BME280;48031;48.542;13.232;2023-09-08T16:58:14;97437.84;;;42.23;24.45
62072;BME280;48031;48.542;13.232;2023-09-08T17:02:16;97430.09;;;41.38;23.24
62072;BME280;48031;48.542;13.232;2023-09-08T17:06:18;97434.69;;;39.59;25.65
62072;BME280;48031;48.542;13.232;2023-09-08T17:10:20;97433.69;;;37.68;28.05
62072;BME280;48031;48.542;13.232;2023-09-08T17:14:22;97452.97;;;35.88;31.63
62072;BME280;48031;48.542;13.232;2023-09-08T17:18:25;97463.16;;;35.12;32.63
62072;BME280;48031;48.542;13.232;2023-09-08T17:22:31;97467.50;;;33.20;35.46
62072;BME280;48031;48.542;13.232;2023-09-08T17:26:33;97476.09;;;32.00;38.87
62072;BME280;48031;48.542;13.232;2023-09-08T17:30:35;97485.78;;;29.72;44.16
62072;BME280;48031;48.542;13.232;2023-09-08T17:34:38;97480.00;;;29.61;45.04
62072;BME280;48031;48.542;13.232;2023-09-08T17:38:40;97491.16;;;29.16;46.08
62072;BME280;48031;48.542;13.232;2023-09-08T17:42:43;97487.59;;;28.77;47.62
62072;BME280;48031;48.542;13.232;2023-09-08T17:46:45;97483.69;;;29.01;46.66
62072;BME280;48031;48.542;13.232;2023-09-08T17:50:48;97485.91;;;28.91;48.62
62072;BME280;48031;48.542;13.232;2023-09-08T17:54:50;97492.63;;;29.10;49.38
62072;BME280;48031;48.542;13.232;2023-09-08T17:58:52;97495.06;;;28.34;52.30
62072;BME280;48031;48.542;13.232;2023-09-08T18:02:54;97498.13;;;28.64;53.97
62072;BME280;48031;48.542;13.232;2023-09-08T18:06:56;97496.59;;;27.97;56.01
62072;BME280;48031;48.542;13.232;2023-09-08T18:10:59;97500.94;;;27.79;53.70
62072;BME280;48031;48.542;13.232;2023-09-08T18:15:02;97505.91;;;27.54;53.79
62072;BME280;48031;48.542;13.232;2023-09-08T18:19:04;97508.97;;;27.80;54.71
62072;BME280;48031;48.542;13.232;2023-09-08T18:23:06;97502.09;;;27.30;58.82
62072;BME280;48031;48.542;13.232;2023-09-08T18:27:08;97507.38;;;27.20;56.64
62072;BME280;48031;48.542;13.232;2023-09-08T18:31:10;97504.47;;;27.60;54.58
62072;BME280;48031;48.542;13.232;2023-09-08T18:35:14;97499.66;;;27.76;56.07
62072;BME280;48031;48.542;13.232;2023-09-08T18:39:18;97507.75;;;27.34;58.37
62072;BME280;48031;48.542;13.232;2023-09-08T18:43:21;97508.50;;;27.03;60.12
62072;BME280;48031;48.542;13.232;2023-09-08T18:47:23;97508.63;;;27.07;60.85
62072;BME280;48031;48.542;13.232;2023-09-08T18:51:25;97504.47;;;26.73;61.76
62072;BME280;48031;48.542;13.232;2023-09-08T18:55:27;97499.41;;;26.23;61.94
62072;BME280;48031;48.542;13.232;2023-09-08T18:59:29;97507.66;;;25.95;61.64
62072;BME280;48031;48.542;13.232;2023-09-08T19:03:32;97501.13;;;26.95;58.51
62072;BME280;48031;48.542;13.232;2023-09-08T19:07:35;97505.09;;;25.53;62.58
62072;BME280;48031;48.542;13.232;2023-09-08T19:11:37;97504.84;;;26.31;62.92
62072;BME280;48031;48.542;13.232;2023-09-08T19:15:39;97506.75;;;25.79;64.28
62072;BME280;48031;48.542;13.232;2023-09-08T19:19:41;97508.13;;;25.73;65.34
62072;BME280;48031;48.542;13.232;2023-09-08T19:23:43;97522.56;;;25.42;67.82
62072;BME280;48031;48.542;13.232;2023-09-08T19:27:46;97507.44;;;25.76;68.26
62072;BME280;48031;48.542;13.232;2023-09-08T19:31:49;97518.38;;;25.36;69.68
62072;BME280;48031;48.542;13.232;2023-09-08T19:35:51;97516.13;;;25.62;68.48
62072;BME280;48031;48.542;13.232;2023-09-08T19:39:54;97515.41;;;24.96;69.89
62072;BME280;48031;48.542;13.232;2023-09-08T19:43:55;97518.25;;;25.32;68.36
62072;BME280;48031;48.542;13.232;2023-09-08T19:47:57;97520.56;;;24.64;71.06
62072;BME280;48031;48.542;13.232;2023-09-08T19:52:00;97523.34;;;24.85;72.63
62072;BME280;48031;48.542;13.232;2023-09-08T19:56:02;97524.34;;;24.80;72.29
62072;BME280;48031;48.542;13.232;2023-09-08T20:00:05;97523.19;;;24.81;72.92
62072;BME280;48031;48.542;13.232;2023-09-08T20:04:14;97522.97;;;24.33;73.28
62072;BME280;48031;48.542;13.232;2023-09-08T20:08:16;97529.44;;;24.58;73.59
62072;BME280;48031;48.542;13.232;2023-09-08T20:12:18;97535.91;;;23.99;76.25
62072;BME280;48031;48.542;13.232;2023-09-08T20:16:20;97528.09;;;23.93;75.86
62072;BME280;48031;48.542;13.232;2023-09-08T20:20:22;97535.34;;;22.32;82.36
62072;BME280;48031;48.542;13.232;2023-09-08T20:24:27;97532.44;;;22.46;85.16
62072;BME280;48031;48.542;13.232;2023-09-08T20:28:28;97536.97;;;22.42;85.38
62072;BME280;48031;48.542;13.232;2023-09-08T20:32:30;97543.31;;;22.68;83.29
62072;BME280;48031;48.542;13.232;2023-09-08T20:36:33;97538.75;;;22.80;83.31
62072;BME280;48031;48.542;13.232;2023-09-08T20:40:35;97538.91;;;22.58;84.77
62072;BME280;48031;48.542;13.232;2023-09-08T20:44:37;97537.13;;;22.19;85.82
62072;BME280;48031;48.542;13.232;2023-09-08T20:48:39;97541.72;;;21.76;88.02
62072;BME280;48031;48.542;13.232;2023-09-08T20:52:42;97537.13;;;22.79;84.92
62072;BME280;48031;48.542;13.232;2023-09-08T20:56:44;97535.25;;;23.27;82.02
62072;BME280;48031;48.542;13.232;2023-09-08T21:00:46;97538.75;;;22.20;85.91
62072;BME280;48031;48.542;13.232;2023-09-08T21:04:48;97535.34;;;22.32;87.44
62072;BME280;48031;48.542;13.232;2023-09-08T21:08:51;97539.78;;;21.85;87.89
62072;BME280;48031;48.542;13.232;2023-09-08T21:12:53;97547.78;;;21.47;90.82